Data for 11/04/2014

Time Sea-Level Adjusted Pressure Absolute Pressure Temperature Relative Humidity Dew Point   
(mb) (inHg) (mb) (inHg) (C) (F) (%) (C) (F)
00:05 1024 30.24 853 25.19 2.8 37 54 -5.7 21.7
00:10 1024 30.24 853 25.19 2.8 37.1 53 -5.8 21.6
00:15 1024 30.24 853 25.19 2.8 37.1 53 -5.8 21.6
00:20 1024 30.24 853 25.19 2.9 37.2 53 -5.8 21.5
00:25 1024 30.24 853 25.19 2.8 37.1 54 -5.6 21.9
00:30 1024 30.24 853 25.19 2.3 36.2 56 -5.7 21.8
00:35 1024 30.24 853 25.19 1.9 35.4 56 -5.9 21.4
00:40 1024 30.24 853 25.19 1.9 35.4 56 -6 21.1
00:45 1024 30.24 853 25.19 1.8 35.3 57 -5.8 21.6
00:50 1024 30.24 853 25.19 1.7 35 56 -6.1 21
00:55 1024 30.24 853 25.19 1.4 34.5 59 -5.8 21.6
01:00 1024 30.24 853 25.19 1 33.8 60 -5.9 21.3
01:05 1024 30.24 853 25.19 1.2 34.1 55 -6.8 19.7
01:10 1024 30.24 853 25.19 2.3 36.1 52 -6.5 20.3
01:15 1024 30.24 853 25.19 2.4 36.3 54 -6 21.2
01:20 1024 30.24 853 25.19 1.7 35.1 57 -5.9 21.4
01:25 1024 30.24 853 25.19 1.2 34.2 59 -6 21.2
01:30 1024 30.24 853 25.19 1 33.8 59 -6.1 21.1
01:35 1024 30.24 853 25.19 0.9 33.5 61 -5.9 21.4
01:40 1024 30.24 853 25.19 0.5 32.8 63 -5.9 21.4
01:45 1023 30.21 853 25.19 0.2 32.4 64 -5.9 21.4
01:50 1023 30.21 853 25.19 0.4 32.8 62 -5.9 21.3
01:55 1023 30.21 853 25.19 0.4 32.7 61 -6.3 20.7
02:00 1023 30.21 853 25.19 0.7 33.3 62 -5.8 21.6
02:05 1023 30.21 853 25.19 0.6 33.1 61 -6 21.1
02:10 1023 30.21 853 25.19 0.8 33.5 61 -5.9 21.4
02:15 1023 30.21 853 25.19 1 33.8 60 -5.9 21.4
02:20 1023 30.21 853 25.19 1.4 34.5 59 -5.9 21.4
02:25 1023 30.21 853 25.19 1.5 34.7 59 -5.7 21.7
02:30 1023 30.21 852 25.16 1.5 34.8 58 -5.8 21.5
02:35 1023 30.21 852 25.16 1.7 35.1 58 -5.7 21.7
02:40 1023 30.21 852 25.16 1.6 34.9 59 -5.5 22.2
02:45 1023 30.21 852 25.16 1.4 34.5 59 -5.8 21.6
02:50 1023 30.21 852 25.16 1.6 34.9 59 -5.6 21.9
02:55 1023 30.21 852 25.16 1.4 34.6 60 -5.5 22.1
03:00 1023 30.21 852 25.16 1.5 34.6 59 -5.6 21.8
03:05 1023 30.21 852 25.16 1.6 34.9 59 -5.5 22
03:10 1023 30.21 852 25.16 1.7 35.1 58 -5.7 21.8
03:15 1023 30.21 852 25.16 1.9 35.5 56 -5.8 21.5
03:20 1023 30.21 853 25.19 2.1 35.9 57 -5.6 21.9
03:25 1023 30.21 853 25.19 2.1 35.9 57 -5.4 22.2
03:30 1023 30.21 852 25.16 1.9 35.4 60 -5.1 22.8
03:35 1023 30.21 852 25.16 1.3 34.4 61 -5.4 22.2
03:40 1023 30.21 852 25.16 1.2 34.2 61 -5.6 22
03:45 1023 30.21 852 25.16 1.5 34.6 60 -5.5 22.1
03:50 1023 30.21 852 25.16 1.5 34.7 60 -5.5 22.2
03:55 1023 30.21 852 25.16 1.4 34.4 64 -4.8 23.4
04:00 1023 30.21 852 25.16 0.9 33.7 63 -5.2 22.6
04:05 1023 30.21 852 25.16 1.1 33.9 62 -5.5 22.1
04:10 1023 30.21 852 25.16 1.3 34.4 60 -5.6 22
04:15 1023 30.21 852 25.16 1.1 34 64 -5 23.1
04:20 1023 30.21 852 25.16 1.3 34.3 58 -6 21.1
04:25 1023 30.21 852 25.16 2 35.5 56 -5.9 21.4
04:30 1023 30.21 852 25.16 2.2 36 56 -5.7 21.8
04:35 1023 30.21 852 25.16 2.2 35.9 56 -5.6 21.9
04:40 1023 30.21 852 25.16 2.1 35.8 57 -5.5 22
04:45 1023 30.21 852 25.16 2.1 35.8 57 -5.5 22.1
04:50 1023 30.21 852 25.16 2 35.5 57 -5.7 21.8
04:55 1023 30.21 852 25.16 2 35.5 58 -5.4 22.2
05:00 1023 30.21 852 25.16 1.6 34.9 59 -5.4 22.2
05:05 1023 30.21 852 25.16 1.3 34.3 61 -5.3 22.4
05:10 1023 30.21 852 25.16 1.2 34.1 59 -5.9 21.4
05:15 1023 30.21 852 25.16 1.4 34.6 59 -5.8 21.6
05:20 1022 30.18 852 25.16 1.3 34.3 61 -5.5 22.1
05:25 1022 30.18 852 25.16 0.7 33.2 63 -5.6 22
05:30 1022 30.18 852 25.16 0.7 33.3 61 -5.9 21.3
05:35 1022 30.18 852 25.16 0.8 33.4 64 -5.4 22.4
05:40 1022 30.18 851 25.13 0.2 32.4 65 -5.6 21.9
05:45 1022 30.18 851 25.13 0.2 32.4 62 -6.2 20.9
05:50 1022 30.18 851 25.13 1 33.8 60 -5.9 21.4
05:55 1022 30.18 851 25.13 1.1 34 60 -5.9 21.4
06:00 1022 30.18 851 25.13 1.3 34.3 59 -5.8 21.6
06:05 1022 30.18 851 25.13 1.4 34.6 59 -5.8 21.5
06:10 1022 30.18 851 25.13 1 33.9 62 -5.5 22.1
06:15 1022 30.18 851 25.13 0.4 32.7 63 -5.9 21.4
06:20 1022 30.18 851 25.13 0.3 32.6 63 -5.9 21.5
06:25 1022 30.18 851 25.13 0.5 32.9 63 -5.8 21.6
06:30 1022 30.18 851 25.13 0.1 32.3 65 -5.8 21.6
06:35 1022 30.18 851 25.13 -0 31.9 64 -6.1 21.1
06:40 1022 30.18 851 25.13 0.3 32.6 62 -6.1 21.1
06:45 1022 30.18 851 25.13 0.5 32.9 62 -5.9 21.4
06:50 1022 30.18 851 25.13 0.2 32.4 65 -5.6 21.9
06:55 1022 30.18 851 25.13 -0.6 31 68 -5.8 21.5
07:00 1022 30.18 851 25.13 -0.4 31.3 68 -5.7 21.8
07:05 1022 30.18 851 25.13 -0 31.9 65 -5.8 21.6
07:10 1022 30.18 851 25.13 -0.1 31.8 65 -5.9 21.4
07:15 1022 30.18 851 25.13 -0.1 31.8 65 -5.9 21.4
07:20 1022 30.18 851 25.13 -0.1 31.8 67 -5.6 21.9
07:25 1022 30.18 851 25.13 -0.4 31.3 68 -5.7 21.7
07:30 1022 30.18 851 25.13 -0.5 31 69 -5.6 21.9
07:35 1022 30.18 851 25.13 -0.9 30.4 70 -5.7 21.7
07:40 1022 30.18 851 25.13 -1.6 29.2 73 -5.8 21.6
07:45 1022 30.18 851 25.13 -1.9 28.6 74 -6 21.3
07:50 1022 30.18 851 25.13 -1.5 29.4 72 -5.9 21.4
07:55 1022 30.18 851 25.13 -0.9 30.4 67 -6.3 20.6
08:00 1022 30.18 851 25.13 -0.2 31.7 66 -5.8 21.6
08:05 1022 30.18 851 25.13 -0.1 31.8 66 -5.7 21.7
08:10 1022 30.18 851 25.13 -0.4 31.2 67 -5.8 21.6
08:15 1022 30.18 851 25.13 -0.7 30.8 69 -5.7 21.8
08:20 1022 30.18 851 25.13 -0.8 30.6 69 -5.8 21.5
08:25 1022 30.18 851 25.13 -0.7 30.7 69 -5.7 21.7
08:30 1022 30.18 851 25.13 -0.5 31.1 69 -5.6 22
08:35 1022 30.18 851 25.13 -0.1 31.9 66 -5.7 21.8
08:40 1022 30.18 851 25.13 0.4 32.8 63 -5.7 21.7
08:45 1022 30.18 851 25.13 1.1 33.9 61 -5.7 21.7
08:50 1022 30.18 851 25.13 1.4 34.4 60 -5.5 22.1
08:55 1022 30.18 851 25.13 1.6 35 58 -5.7 21.7
09:00 1022 30.18 851 25.13 1.5 34.8 60 -5.4 22.3
09:05 1022 30.18 851 25.13 1.6 34.9 59 -5.6 22
09:10 1022 30.18 851 25.13 1.7 35 59 -5.4 22.3
09:15 1022 30.18 851 25.13 1.8 35.3 58 -5.6 22
09:20 1022 30.18 851 25.13 2.1 35.8 58 -5.4 22.3
09:25 1022 30.18 851 25.13 2.1 35.8 58 -5.3 22.5
09:30 1022 30.18 851 25.13 2.1 35.8 58 -5.3 22.5
09:35 1022 30.18 851 25.13 2 35.7 59 -5.2 22.7
09:40 1022 30.18 851 25.13 1.9 35.5 59 -5.2 22.7
09:45 1022 30.18 851 25.13 2.1 35.7 59 -5.2 22.7
09:50 1022 30.18 851 25.13 2.3 36.2 58 -5.1 22.9
09:55 1022 30.18 851 25.13 2.6 36.7 61 -4.2 24.4
10:00 1022 30.18 851 25.13 2.9 37.2 58 -4.7 23.6
10:05 1022 30.18 851 25.13 3 37.5 57 -4.7 23.5
10:10 1022 30.18 851 25.13 3.4 38.1 57 -4.4 24.1
10:15 1022 30.18 851 25.13 3.8 38.8 54 -4.6 23.7
10:20 1022 30.18 851 25.13 4.1 39.4 54 -4.2 24.4
10:25 1022 30.18 851 25.13 4.5 40.2 52 -4.5 24
10:30 1022 30.18 851 25.13 5.2 41.4 49 -4.6 23.6
10:35 1022 30.18 851 25.13 6 42.8 45 -5 22.9
10:40 1022 30.18 851 25.13 6.3 43.3 44 -5.1 22.8
10:45 1022 30.18 851 25.13 6.7 44 43 -5 23
10:50 1022 30.18 851 25.13 7.3 45.1 41 -5 23
10:55 1022 30.18 851 25.13 7.6 45.7 41 -4.8 23.3
11:00 1022 30.18 851 25.13 8.2 46.7 40 -4.5 24
11:05 1022 30.18 851 25.13 8.2 46.8 42 -3.8 25.1
11:10 1022 30.18 851 25.13 7.7 45.9 42 -4.3 24.2
11:15 1022 30.18 851 25.13 8.2 46.7 40 -4.7 23.5
11:20 1022 30.18 851 25.13 8.8 47.9 38 -4.5 23.8
11:25 1022 30.18 851 25.13 8.2 46.8 41 -4.3 24.3
11:30 1022 30.18 851 25.13 8.3 47 40 -4.5 24
11:35 1022 30.18 851 25.13 8.9 48 37 -5 23
11:40 1022 30.18 851 25.13 9.6 49.2 36 -4.7 23.5
11:45 1022 30.18 851 25.13 10.1 50.1 35 -4.7 23.6
11:50 1022 30.18 851 25.13 10.4 50.7 35 -4.3 24.3
11:55 1022 30.18 851 25.13 9.7 49.4 37 -4.3 24.2
12:00 1021 30.15 851 25.13 9.2 48.5 38 -4.4 24
12:05 1021 30.15 851 25.13 9.1 48.4 38 -4.4 24.1
12:10 1021 30.15 851 25.13 9.3 48.7 39 -4.1 24.6
12:15 1021 30.15 850 25.1 9.2 48.6 40 -3.8 25.2
12:20 1021 30.15 850 25.1 9.1 48.4 38 -4.3 24.3
12:25 1021 30.15 850 25.1 9.5 49 37 -4.4 24
12:30 1021 30.15 850 25.1 9.9 49.7 35 -4.7 23.5
12:35 1021 30.15 850 25.1 9.8 49.7 36 -4.4 24
12:40 1021 30.15 850 25.1 9.7 49.5 37 -4.3 24.2
12:45 1021 30.15 850 25.1 9.7 49.4 37 -4.4 24
12:50 1021 30.15 850 25.1 9.6 49.3 37 -4.5 23.9
12:55 1021 30.15 850 25.1 9.6 49.3 37 -4.2 24.4
13:00 1021 30.15 850 25.1 9.7 49.4 37 -4.1 24.6
13:05 1021 30.15 850 25.1 9.8 49.6 37 -4.1 24.6
13:10 1021 30.15 850 25.1 9.8 49.7 37 -4.2 24.5
13:15 1021 30.15 850 25.1 9.9 49.8 36 -4.4 24
13:20 1020 30.12 850 25.1 9.9 49.8 36 -4.4 24.1
13:25 1020 30.12 850 25.1 9.9 49.8 37 -4.2 24.5
13:30 1020 30.12 850 25.1 9.8 49.7 37 -4.1 24.6
13:35 1020 30.12 850 25.1 9.8 49.6 36 -4.6 23.7
13:40 1020 30.12 849 25.07 9.8 49.6 36 -4.4 24
13:45 1020 30.12 849 25.07 9.7 49.4 37 -4.2 24.5
13:50 1020 30.12 849 25.07 9.6 49.3 38 -4.1 24.6
13:55 1020 30.12 849 25.07 9.6 49.3 37 -4.2 24.5
14:00 1020 30.12 849 25.07 9.6 49.3 37 -4.4 24.2
14:05 1020 30.12 849 25.07 9.6 49.3 37 -4.2 24.5
14:10 1020 30.12 849 25.07 9.6 49.3 37 -4.4 24
14:15 1020 30.12 849 25.07 9.6 49.4 37 -4.3 24.3
14:20 1020 30.12 849 25.07 9.8 49.6 37 -4.2 24.4
14:25 1020 30.12 849 25.07 9.8 49.7 37 -4 24.9
14:30 1020 30.12 849 25.07 9.9 49.8 37 -4 24.8
14:35 1020 30.12 849 25.07 9.9 49.8 37 -4.1 24.6
14:40 1020 30.12 849 25.07 10 49.9 37 -4 24.8
14:45 1020 30.12 849 25.07 9.9 49.8 38 -3.9 25
14:50 1020 30.12 849 25.07 9.9 49.8 38 -3.8 25.1
14:55 1020 30.12 849 25.07 9.9 49.9 37 -3.9 24.9
15:00 1020 30.12 849 25.07 9.8 49.6 39 -3.6 25.6
15:05 1020 30.12 849 25.07 9.7 49.5 39 -3.6 25.6
15:10 1019 30.09 849 25.07 9.6 49.3 39 -3.5 25.7
15:15 1019 30.09 849 25.07 9.6 49.3 40 -3.3 26
15:20 1019 30.09 849 25.07 9.7 49.5 40 -3.3 26.1
15:25 1019 30.09 849 25.07 9.8 49.7 39 -3.3 26.1
15:30 1020 30.12 849 25.07 9.9 49.7 40 -3 26.6
15:35 1019 30.09 849 25.07 9.9 49.9 39 -3.3 26.1
15:40 1019 30.09 849 25.07 10.1 50.2 39 -3.3 26.1
15:45 1019 30.09 849 25.07 10.2 50.4 39 -3.2 26.3
15:50 1019 30.09 849 25.07 10.3 50.5 39 -3.1 26.4
15:55 1020 30.12 849 25.07 10.4 50.6 38 -3.3 26.1
16:00 1020 30.12 849 25.07 10.4 50.7 38 -3.2 26.3
16:05 1020 30.12 849 25.07 10.3 50.6 38 -3.3 26.1
16:10 1019 30.09 849 25.07 10.3 50.6 38 -3.4 25.9
16:15 1019 30.09 849 25.07 10.4 50.6 38 -3.2 26.3
16:20 1019 30.09 849 25.07 10.3 50.6 38 -3.3 26
16:25 1020 30.12 849 25.07 10.3 50.6 38 -3.4 25.9
16:30 1020 30.12 849 25.07 10.4 50.6 38 -3.3 26.1
16:35 1020 30.12 849 25.07 10.3 50.5 39 -3.2 26.3
16:40 1020 30.12 849 25.07 10.3 50.5 38 -3.5 25.7
16:45 1020 30.12 849 25.07 10.3 50.5 39 -3.1 26.4
16:50 1020 30.12 849 25.07 10.2 50.3 39 -3.3 26.1
16:55 1020 30.12 849 25.07 10.1 50.3 38 -3.5 25.8
17:00 1020 30.12 849 25.07 10.2 50.3 38 -3.4 25.9
17:05 1020 30.12 849 25.07 10.1 50.2 39 -3.1 26.5
17:10 1020 30.12 849 25.07 10 50 40 -2.9 26.8
17:15 1020 30.12 849 25.07 9.9 49.8 40 -3.1 26.4
17:20 1020 30.12 849 25.07 9.9 49.8 40 -3 26.6
17:25 1020 30.12 849 25.07 9.9 49.8 40 -3.1 26.5
17:30 1020 30.12 849 25.07 9.8 49.7 40 -3 26.6
17:35 1020 30.12 849 25.07 9.7 49.5 41 -2.9 26.8
17:40 1020 30.12 849 25.07 9.7 49.5 41 -3 26.7
17:45 1020 30.12 849 25.07 9.7 49.4 41 -2.9 26.8
17:50 1020 30.12 849 25.07 9.7 49.5 41 -2.9 26.8
17:55 1020 30.12 849 25.07 9.7 49.4 41 -2.8 27
18:00 1020 30.12 849 25.07 9.6 49.2 42 -2.8 27
18:05 1020 30.12 849 25.07 9.6 49.3 42 -2.7 27.1
18:10 1020 30.12 849 25.07 9.6 49.4 42 -2.7 27.1
18:15 1020 30.12 849 25.07 9.6 49.3 44 -2.1 28.2
18:20 1020 30.12 849 25.07 9.6 49.3 42 -2.6 27.3
18:25 1020 30.12 849 25.07 9.6 49.3 43 -2.3 27.8
18:30 1020 30.12 849 25.07 9.5 49 44 -2.2 28
18:35 1020 30.12 849 25.07 9.4 48.9 43 -2.5 27.5
18:40 1020 30.12 849 25.07 9.4 48.9 43 -2.6 27.4
18:45 1020 30.12 849 25.07 9.4 48.9 43 -2.5 27.5
18:50 1019 30.09 849 25.07 9.2 48.6 44 -2.5 27.5
18:55 1019 30.09 849 25.07 9.1 48.3 44 -2.5 27.4
19:00 1019 30.09 849 25.07 9.1 48.3 44 -2.5 27.5
19:05 1019 30.09 848 25.04 9.2 48.5 43 -2.8 27
19:10 1019 30.09 848 25.04 9.2 48.6 43 -2.7 27.1
19:15 1019 30.09 848 25.04 9.2 48.5 44 -2.6 27.3
19:20 1019 30.09 848 25.04 9 48.1 44 -2.7 27.1
19:25 1019 30.09 848 25.04 9 48.1 43 -2.9 26.9
19:30 1019 30.09 849 25.07 9 48.1 44 -2.7 27.1
19:35 1019 30.09 849 25.07 9 48.1 43 -2.8 27
19:40 1020 30.12 849 25.07 9.1 48.3 43 -2.8 27
19:45 1020 30.12 849 25.07 9.2 48.5 43 -2.6 27.3
19:50 1020 30.12 849 25.07 9.1 48.3 44 -2.4 27.7
19:55 1020 30.12 849 25.07 8.8 47.9 45 -2.5 27.5
20:00 1020 30.12 849 25.07 8.7 47.7 45 -2.4 27.6
20:05 1020 30.12 849 25.07 8.6 47.6 45 -2.5 27.6
20:10 1020 30.12 849 25.07 8.6 47.5 45 -2.6 27.4
20:15 1020 30.12 849 25.07 8.6 47.4 46 -2.5 27.5
20:20 1020 30.12 849 25.07 8.5 47.3 46 -2.4 27.6
20:25 1020 30.12 849 25.07 8.5 47.2 45 -2.7 27.1
20:30 1020 30.12 849 25.07 8.5 47.3 46 -2.5 27.5
20:35 1020 30.12 849 25.07 8.5 47.2 46 -2.6 27.3
20:40 1020 30.12 849 25.07 8.6 47.5 46 -2.4 27.6
20:45 1020 30.12 849 25.07 8.6 47.4 46 -2.3 27.9
20:50 1020 30.12 849 25.07 8.5 47.3 47 -2.2 28
20:55 1020 30.12 849 25.07 8.7 47.6 45 -2.5 27.6
21:00 1020 30.12 849 25.07 9.1 48.4 44 -2.4 27.7
21:05 1020 30.12 849 25.07 9.2 48.5 45 -2.2 28
21:10 1020 30.12 849 25.07 9.1 48.4 45 -2.3 27.9
21:15 1020 30.12 849 25.07 9.1 48.4 44 -2.3 27.8
21:20 1020 30.12 849 25.07 9.2 48.6 44 -2.3 27.8
21:25 1020 30.12 849 25.07 9.2 48.5 44 -2.2 28
21:30 1020 30.12 849 25.07 9.1 48.4 45 -2.1 28.2
21:35 1020 30.12 849 25.07 9 48.2 46 -2.1 28.3
21:40 1020 30.12 849 25.07 9 48.2 45 -2.1 28.2
21:45 1020 30.12 850 25.1 9 48.3 46 -1.9 28.6
21:50 1021 30.15 850 25.1 9 48.1 46 -1.9 28.6
21:55 1021 30.15 850 25.1 8.8 47.9 47 -1.8 28.7
22:00 1021 30.15 850 25.1 8.7 47.6 48 -1.8 28.8
22:05 1021 30.15 850 25.1 8.6 47.5 47 -2 28.4
22:10 1021 30.15 850 25.1 8.7 47.6 47 -2 28.4
22:15 1021 30.15 851 25.13 8.7 47.7 47 -1.9 28.6
22:20 1022 30.18 851 25.13 8.7 47.7 47 -2 28.3
22:25 1022 30.18 851 25.13 8.7 47.7 47 -1.9 28.6
22:30 1022 30.18 851 25.13 8.7 47.7 48 -1.8 28.8
22:35 1022 30.18 851 25.13 8.6 47.5 48 -1.7 28.9
22:40 1022 30.18 851 25.13 8.4 47.2 49 -1.6 29.1
22:45 1021 30.15 851 25.13 8.3 47 49 -1.7 29
22:50 1021 30.15 851 25.13 8.4 47 49 -1.7 28.9
22:55 1022 30.18 851 25.13 8.5 47.2 49 -1.7 29
23:00 1022 30.18 851 25.13 8.4 47.2 49 -1.8 28.8
23:05 1021 30.15 851 25.13 8.4 47.1 48 -1.8 28.7
23:10 1021 30.15 851 25.13 8.5 47.4 47 -2.1 28.3
23:15 1022 30.18 851 25.13 8.7 47.6 47 -1.9 28.5
23:20 1022 30.18 851 25.13 8.7 47.7 47 -2 28.4
23:25 1022 30.18 851 25.13 8.8 47.8 47 -1.8 28.7
23:30 1022 30.18 851 25.13 8.7 47.7 47 -1.8 28.7
23:35 1022 30.18 851 25.13 8.6 47.5 48 -1.7 28.9
23:40 1022 30.18 851 25.13 8.5 47.3 48 -1.9 28.5
23:45 1022 30.18 851 25.13 8.7 47.6 46 -2.2 28.1
23:50 1022 30.18 851 25.13 8.8 47.8 47 -1.9 28.6
23:55 1022 30.18 851 25.13 8.7 47.6 47 -1.9 28.6
24:00 1022 30.18 851 25.13 8.7 47.6 47 -2 28.5